sensor_id;sensor_type;location;lat;lon;timestamp;temperature;humidity
45803;DHT22;31504;51.716;9.184;2023-04-25T00:02:55;21.10;46.30
45803;DHT22;31504;51.716;9.184;2023-04-25T00:05:59;21.10;46.10
45803;DHT22;31504;51.716;9.184;2023-04-25T00:09:03;21.10;46.20
45803;DHT22;31504;51.716;9.184;2023-04-25T00:12:07;21.10;46.30
45803;DHT22;31504;51.716;9.184;2023-04-25T00:15:08;21.10;46.20
45803;DHT22;31504;51.716;9.184;2023-04-25T00:18:08;21.10;46.10
45803;DHT22;31504;51.716;9.184;2023-04-25T00:21:09;21.10;46.10
45803;DHT22;31504;51.716;9.184;2023-04-25T00:24:09;21.10;46.20
45803;DHT22;31504;51.716;9.184;2023-04-25T00:27:10;21.10;46.20
45803;DHT22;31504;51.716;9.184;2023-04-25T00:30:11;21.10;46.00
45803;DHT22;31504;51.716;9.184;2023-04-25T00:33:11;21.10;46.10
45803;DHT22;31504;51.716;9.184;2023-04-25T00:36:12;21.10;46.20
45803;DHT22;31504;51.716;9.184;2023-04-25T00:39:12;21.10;45.90
45803;DHT22;31504;51.716;9.184;2023-04-25T00:42:13;21.10;46.10
45803;DHT22;31504;51.716;9.184;2023-04-25T00:45:14;21.10;46.00
45803;DHT22;31504;51.716;9.184;2023-04-25T00:48:18;21.10;46.00
45803;DHT22;31504;51.716;9.184;2023-04-25T00:51:21;21.10;46.00
45803;DHT22;31504;51.716;9.184;2023-04-25T00:54:21;21.10;46.00
45803;DHT22;31504;51.716;9.184;2023-04-25T00:57:22;21.10;46.10
45803;DHT22;31504;51.716;9.184;2023-04-25T01:00:22;21.10;46.00
45803;DHT22;31504;51.716;9.184;2023-04-25T01:03:23;21.10;45.90
45803;DHT22;31504;51.716;9.184;2023-04-25T01:06:24;21.10;46.00
45803;DHT22;31504;51.716;9.184;2023-04-25T01:09:24;21.10;46.20
45803;DHT22;31504;51.716;9.184;2023-04-25T01:12:25;21.10;46.00
45803;DHT22;31504;51.716;9.184;2023-04-25T01:15:25;21.10;46.60
45803;DHT22;31504;51.716;9.184;2023-04-25T01:18:26;21.10;46.00
45803;DHT22;31504;51.716;9.184;2023-04-25T01:21:26;21.10;45.90
45803;DHT22;31504;51.716;9.184;2023-04-25T01:24:28;21.10;46.10
45803;DHT22;31504;51.716;9.184;2023-04-25T01:27:28;21.10;46.00
45803;DHT22;31504;51.716;9.184;2023-04-25T01:30:29;21.10;46.10
45803;DHT22;31504;51.716;9.184;2023-04-25T01:33:30;21.10;46.10
45803;DHT22;31504;51.716;9.184;2023-04-25T01:36:30;21.10;46.00
45803;DHT22;31504;51.716;9.184;2023-04-25T01:39:31;21.10;45.90
45803;DHT22;31504;51.716;9.184;2023-04-25T01:42:32;21.10;46.00
45803;DHT22;31504;51.716;9.184;2023-04-25T01:45:33;21.10;46.00
45803;DHT22;31504;51.716;9.184;2023-04-25T01:48:34;21.10;45.90
45803;DHT22;31504;51.716;9.184;2023-04-25T01:51:34;21.10;45.90
45803;DHT22;31504;51.716;9.184;2023-04-25T01:54:35;21.10;45.90
45803;DHT22;31504;51.716;9.184;2023-04-25T01:57:35;21.10;45.80
45803;DHT22;31504;51.716;9.184;2023-04-25T02:00:36;21.10;45.80
45803;DHT22;31504;51.716;9.184;2023-04-25T02:03:38;21.10;45.90
45803;DHT22;31504;51.716;9.184;2023-04-25T02:06:39;21.10;45.80
45803;DHT22;31504;51.716;9.184;2023-04-25T02:09:40;21.10;45.80
45803;DHT22;31504;51.716;9.184;2023-04-25T02:12:40;21.00;45.80
45803;DHT22;31504;51.716;9.184;2023-04-25T02:15:41;21.10;45.80
45803;DHT22;31504;51.716;9.184;2023-04-25T02:18:41;21.00;45.80
45803;DHT22;31504;51.716;9.184;2023-04-25T02:21:42;21.10;45.80
45803;DHT22;31504;51.716;9.184;2023-04-25T02:24:43;21.00;45.90
45803;DHT22;31504;51.716;9.184;2023-04-25T02:27:43;21.00;45.80
45803;DHT22;31504;51.716;9.184;2023-04-25T02:30:44;21.00;45.80
45803;DHT22;31504;51.716;9.184;2023-04-25T02:33:44;21.00;45.90
45803;DHT22;31504;51.716;9.184;2023-04-25T02:36:45;21.00;45.70
45803;DHT22;31504;51.716;9.184;2023-04-25T02:39:45;21.00;45.60
45803;DHT22;31504;51.716;9.184;2023-04-25T02:42:46;21.00;46.30
45803;DHT22;31504;51.716;9.184;2023-04-25T02:45:46;21.00;45.80
45803;DHT22;31504;51.716;9.184;2023-04-25T02:48:46;21.00;45.80
45803;DHT22;31504;51.716;9.184;2023-04-25T02:51:47;21.00;45.60
45803;DHT22;31504;51.716;9.184;2023-04-25T02:54:47;21.00;45.70
45803;DHT22;31504;51.716;9.184;2023-04-25T02:57:48;21.00;45.70
45803;DHT22;31504;51.716;9.184;2023-04-25T03:00:48;21.00;45.70
45803;DHT22;31504;51.716;9.184;2023-04-25T03:03:49;21.00;45.60
45803;DHT22;31504;51.716;9.184;2023-04-25T03:06:49;21.00;45.90
45803;DHT22;31504;51.716;9.184;2023-04-25T03:09:50;21.00;46.10
45803;DHT22;31504;51.716;9.184;2023-04-25T03:12:50;21.00;46.30
45803;DHT22;31504;51.716;9.184;2023-04-25T03:15:51;21.00;46.40
45803;DHT22;31504;51.716;9.184;2023-04-25T03:18:51;21.00;46.30
45803;DHT22;31504;51.716;9.184;2023-04-25T03:21:52;21.10;46.30
45803;DHT22;31504;51.716;9.184;2023-04-25T03:24:53;21.10;46.20
45803;DHT22;31504;51.716;9.184;2023-04-25T03:27:54;21.10;46.20
45803;DHT22;31504;51.716;9.184;2023-04-25T03:30:55;21.10;46.00
45803;DHT22;31504;51.716;9.184;2023-04-25T03:33:56;21.10;46.00
45803;DHT22;31504;51.716;9.184;2023-04-25T03:36:56;21.10;45.90
45803;DHT22;31504;51.716;9.184;2023-04-25T03:39:56;21.10;45.90
45803;DHT22;31504;51.716;9.184;2023-04-25T03:42:57;21.10;45.90
45803;DHT22;31504;51.716;9.184;2023-04-25T03:45:57;21.10;45.90
45803;DHT22;31504;51.716;9.184;2023-04-25T03:48:58;21.10;46.00
45803;DHT22;31504;51.716;9.184;2023-04-25T03:51:59;21.10;46.00
45803;DHT22;31504;51.716;9.184;2023-04-25T03:55:00;21.10;45.90
45803;DHT22;31504;51.716;9.184;2023-04-25T03:58:01;21.10;45.80
45803;DHT22;31504;51.716;9.184;2023-04-25T04:01:01;21.10;45.90
45803;DHT22;31504;51.716;9.184;2023-04-25T04:04:07;21.10;45.90
45803;DHT22;31504;51.716;9.184;2023-04-25T04:07:08;21.10;45.90
45803;DHT22;31504;51.716;9.184;2023-04-25T04:10:09;21.10;45.90
45803;DHT22;31504;51.716;9.184;2023-04-25T04:13:10;21.10;45.80
45803;DHT22;31504;51.716;9.184;2023-04-25T04:16:10;21.10;45.90
45803;DHT22;31504;51.716;9.184;2023-04-25T04:19:11;21.10;45.70
45803;DHT22;31504;51.716;9.184;2023-04-25T04:22:11;21.10;45.70
45803;DHT22;31504;51.716;9.184;2023-04-25T04:25:12;21.10;45.70
45803;DHT22;31504;51.716;9.184;2023-04-25T04:28:12;21.10;45.70
45803;DHT22;31504;51.716;9.184;2023-04-25T04:31:13;21.10;46.30
45803;DHT22;31504;51.716;9.184;2023-04-25T04:34:17;21.10;45.70
45803;DHT22;31504;51.716;9.184;2023-04-25T04:37:18;21.10;45.70
45803;DHT22;31504;51.716;9.184;2023-04-25T04:40:18;21.10;45.70
45803;DHT22;31504;51.716;9.184;2023-04-25T04:43:19;21.10;45.70
45803;DHT22;31504;51.716;9.184;2023-04-25T04:46:19;21.10;46.30
45803;DHT22;31504;51.716;9.184;2023-04-25T04:49:20;21.10;45.70
45803;DHT22;31504;51.716;9.184;2023-04-25T04:52:21;21.10;45.70
45803;DHT22;31504;51.716;9.184;2023-04-25T04:55:21;21.10;45.70
45803;DHT22;31504;51.716;9.184;2023-04-25T04:58:22;21.10;45.70
45803;DHT22;31504;51.716;9.184;2023-04-25T05:01:23;21.10;45.80
45803;DHT22;31504;51.716;9.184;2023-04-25T05:04:23;21.10;45.70
45803;DHT22;31504;51.716;9.184;2023-04-25T05:07:23;21.00;45.60
45803;DHT22;31504;51.716;9.184;2023-04-25T05:10:25;21.10;45.70
45803;DHT22;31504;51.716;9.184;2023-04-25T05:13:25;21.00;45.60
45803;DHT22;31504;51.716;9.184;2023-04-25T05:16:26;21.00;45.50
45803;DHT22;31504;51.716;9.184;2023-04-25T05:19:26;21.10;45.70
45803;DHT22;31504;51.716;9.184;2023-04-25T05:22:27;21.00;45.70
45803;DHT22;31504;51.716;9.184;2023-04-25T05:25:27;21.10;45.60
45803;DHT22;31504;51.716;9.184;2023-04-25T05:28:28;21.10;45.60
45803;DHT22;31504;51.716;9.184;2023-04-25T05:31:28;21.10;45.50
45803;DHT22;31504;51.716;9.184;2023-04-25T05:34:29;21.10;45.60
45803;DHT22;31504;51.716;9.184;2023-04-25T05:37:29;21.10;45.60
45803;DHT22;31504;51.716;9.184;2023-04-25T05:40:31;21.10;45.60
45803;DHT22;31504;51.716;9.184;2023-04-25T05:43:31;21.10;45.50
45803;DHT22;31504;51.716;9.184;2023-04-25T05:46:32;21.10;45.60
45803;DHT22;31504;51.716;9.184;2023-04-25T05:49:33;21.10;45.60
45803;DHT22;31504;51.716;9.184;2023-04-25T05:52:33;21.10;45.60
45803;DHT22;31504;51.716;9.184;2023-04-25T05:55:34;21.10;45.70
45803;DHT22;31504;51.716;9.184;2023-04-25T05:58:35;21.10;45.70
45803;DHT22;31504;51.716;9.184;2023-04-25T06:01:35;21.10;45.70
45803;DHT22;31504;51.716;9.184;2023-04-25T06:04:36;21.10;45.80
45803;DHT22;31504;51.716;9.184;2023-04-25T06:07:36;21.10;45.80
45803;DHT22;31504;51.716;9.184;2023-04-25T06:10:37;21.10;45.90
45803;DHT22;31504;51.716;9.184;2023-04-25T06:13:37;21.10;45.90
45803;DHT22;31504;51.716;9.184;2023-04-25T06:16:38;21.10;45.90
45803;DHT22;31504;51.716;9.184;2023-04-25T06:19:38;21.10;46.00
45803;DHT22;31504;51.716;9.184;2023-04-25T06:22:39;21.10;45.90
45803;DHT22;31504;51.716;9.184;2023-04-25T06:25:39;21.10;45.80
45803;DHT22;31504;51.716;9.184;2023-04-25T06:28:40;21.10;45.80
45803;DHT22;31504;51.716;9.184;2023-04-25T06:31:40;21.00;45.60
45803;DHT22;31504;51.716;9.184;2023-04-25T06:34:41;21.00;45.50
45803;DHT22;31504;51.716;9.184;2023-04-25T06:37:41;21.00;45.50
45803;DHT22;31504;51.716;9.184;2023-04-25T06:40:42;21.00;45.60
45803;DHT22;31504;51.716;9.184;2023-04-25T06:43:42;21.10;45.90
45803;DHT22;31504;51.716;9.184;2023-04-25T06:46:42;21.00;45.80
45803;DHT22;31504;51.716;9.184;2023-04-25T06:49:43;21.00;46.00
45803;DHT22;31504;51.716;9.184;2023-04-25T06:52:43;21.00;45.90
45803;DHT22;31504;51.716;9.184;2023-04-25T06:55:44;21.00;45.90
45803;DHT22;31504;51.716;9.184;2023-04-25T06:58:44;21.00;46.00
45803;DHT22;31504;51.716;9.184;2023-04-25T07:01:45;21.00;46.00
45803;DHT22;31504;51.716;9.184;2023-04-25T07:04:45;21.00;46.00
45803;DHT22;31504;51.716;9.184;2023-04-25T07:07:46;21.00;46.00
45803;DHT22;31504;51.716;9.184;2023-04-25T07:10:46;21.00;46.00
45803;DHT22;31504;51.716;9.184;2023-04-25T07:13:47;21.00;46.00
45803;DHT22;31504;51.716;9.184;2023-04-25T07:16:47;21.00;46.00
45803;DHT22;31504;51.716;9.184;2023-04-25T07:19:48;21.00;46.00
45803;DHT22;31504;51.716;9.184;2023-04-25T07:22:48;21.10;46.10
45803;DHT22;31504;51.716;9.184;2023-04-25T07:25:50;21.10;46.00
45803;DHT22;31504;51.716;9.184;2023-04-25T07:28:50;21.10;45.90
45803;DHT22;31504;51.716;9.184;2023-04-25T07:31:51;21.10;46.00
45803;DHT22;31504;51.716;9.184;2023-04-25T07:34:51;21.10;46.10
45803;DHT22;31504;51.716;9.184;2023-04-25T07:37:52;21.00;46.00
45803;DHT22;31504;51.716;9.184;2023-04-25T07:40:52;21.00;46.00
45803;DHT22;31504;51.716;9.184;2023-04-25T07:43:53;21.00;46.00
45803;DHT22;31504;51.716;9.184;2023-04-25T07:46:53;21.00;46.00
45803;DHT22;31504;51.716;9.184;2023-04-25T07:49:54;21.00;46.00
45803;DHT22;31504;51.716;9.184;2023-04-25T07:52:54;21.00;45.90
45803;DHT22;31504;51.716;9.184;2023-04-25T07:55:55;21.00;45.90
45803;DHT22;31504;51.716;9.184;2023-04-25T07:58:55;21.00;45.80
45803;DHT22;31504;51.716;9.184;2023-04-25T08:01:56;21.00;45.80
45803;DHT22;31504;51.716;9.184;2023-04-25T08:04:57;21.00;45.70
45803;DHT22;31504;51.716;9.184;2023-04-25T08:07:57;21.00;45.70
45803;DHT22;31504;51.716;9.184;2023-04-25T08:10:58;21.00;45.70
45803;DHT22;31504;51.716;9.184;2023-04-25T08:13:58;21.00;45.70
45803;DHT22;31504;51.716;9.184;2023-04-25T08:16:59;21.00;45.70
45803;DHT22;31504;51.716;9.184;2023-04-25T08:19:59;21.00;45.60
45803;DHT22;31504;51.716;9.184;2023-04-25T08:23:00;21.00;45.60
45803;DHT22;31504;51.716;9.184;2023-04-25T08:26:00;21.10;45.60
45803;DHT22;31504;51.716;9.184;2023-04-25T08:29:01;21.00;45.50
45803;DHT22;31504;51.716;9.184;2023-04-25T08:32:01;21.00;45.50
45803;DHT22;31504;51.716;9.184;2023-04-25T08:35:02;21.00;45.50
45803;DHT22;31504;51.716;9.184;2023-04-25T08:38:02;21.00;45.50
45803;DHT22;31504;51.716;9.184;2023-04-25T08:41:03;21.00;45.50
45803;DHT22;31504;51.716;9.184;2023-04-25T08:44:03;21.00;45.50
45803;DHT22;31504;51.716;9.184;2023-04-25T08:47:05;21.10;45.50
45803;DHT22;31504;51.716;9.184;2023-04-25T08:50:05;21.00;45.40
45803;DHT22;31504;51.716;9.184;2023-04-25T08:53:08;21.00;45.30
45803;DHT22;31504;51.716;9.184;2023-04-25T08:56:08;21.00;45.20
45803;DHT22;31504;51.716;9.184;2023-04-25T08:59:11;21.00;45.20
45803;DHT22;31504;51.716;9.184;2023-04-25T09:02:12;21.00;45.20
45803;DHT22;31504;51.716;9.184;2023-04-25T09:05:15;21.00;45.20
45803;DHT22;31504;51.716;9.184;2023-04-25T09:08:16;21.00;45.10
45803;DHT22;31504;51.716;9.184;2023-04-25T09:11:16;21.00;45.00
45803;DHT22;31504;51.716;9.184;2023-04-25T09:14:18;21.00;45.10
45803;DHT22;31504;51.716;9.184;2023-04-25T09:17:20;21.00;44.90
45803;DHT22;31504;51.716;9.184;2023-04-25T09:20:21;21.00;44.90
45803;DHT22;31504;51.716;9.184;2023-04-25T09:23:22;21.00;44.90
45803;DHT22;31504;51.716;9.184;2023-04-25T09:26:22;21.00;44.80
45803;DHT22;31504;51.716;9.184;2023-04-25T09:29:31;21.00;44.90
45803;DHT22;31504;51.716;9.184;2023-04-25T09:32:32;21.10;44.90
45803;DHT22;31504;51.716;9.184;2023-04-25T09:35:36;21.00;44.70
45803;DHT22;31504;51.716;9.184;2023-04-25T09:38:44;21.10;44.70
45803;DHT22;31504;51.716;9.184;2023-04-25T09:41:45;21.10;44.80
45803;DHT22;31504;51.716;9.184;2023-04-25T09:44:46;21.00;44.70
45803;DHT22;31504;51.716;9.184;2023-04-25T09:47:47;21.00;44.60
45803;DHT22;31504;51.716;9.184;2023-04-25T09:54:06;21.00;44.60
45803;DHT22;31504;51.716;9.184;2023-04-25T09:57:17;21.00;44.50
45803;DHT22;31504;51.716;9.184;2023-04-25T10:00:18;21.00;44.50
45803;DHT22;31504;51.716;9.184;2023-04-25T10:03:19;21.00;44.40
45803;DHT22;31504;51.716;9.184;2023-04-25T10:06:20;21.00;44.40
45803;DHT22;31504;51.716;9.184;2023-04-25T10:09:23;21.00;44.30
45803;DHT22;31504;51.716;9.184;2023-04-25T10:12:25;21.00;44.30
45803;DHT22;31504;51.716;9.184;2023-04-25T10:15:26;21.00;44.30
45803;DHT22;31504;51.716;9.184;2023-04-25T10:18:27;21.00;44.10
45803;DHT22;31504;51.716;9.184;2023-04-25T10:21:28;21.00;44.10
45803;DHT22;31504;51.716;9.184;2023-04-25T10:24:30;20.90;41.80
45803;DHT22;31504;51.716;9.184;2023-04-25T10:27:31;20.70;39.40
45803;DHT22;31504;51.716;9.184;2023-04-25T10:30:32;20.60;38.40
45803;DHT22;31504;51.716;9.184;2023-04-25T10:33:33;20.50;39.30
45803;DHT22;31504;51.716;9.184;2023-04-25T10:36:34;20.60;40.20
45803;DHT22;31504;51.716;9.184;2023-04-25T10:39:38;20.70;41.40
45803;DHT22;31504;51.716;9.184;2023-04-25T10:42:40;20.80;40.60
45803;DHT22;31504;51.716;9.184;2023-04-25T10:45:53;20.80;40.90
45803;DHT22;31504;51.716;9.184;2023-04-25T10:48:55;20.90;41.40
45803;DHT22;31504;51.716;9.184;2023-04-25T10:52:11;21.00;41.60
45803;DHT22;31504;51.716;9.184;2023-04-25T10:55:12;21.00;41.90
45803;DHT22;31504;51.716;9.184;2023-04-25T10:58:12;21.00;42.00
45803;DHT22;31504;51.716;9.184;2023-04-25T11:01:13;21.00;42.20
45803;DHT22;31504;51.716;9.184;2023-04-25T11:04:21;21.00;42.30
45803;DHT22;31504;51.716;9.184;2023-04-25T11:10:32;21.00;42.60
45803;DHT22;31504;51.716;9.184;2023-04-25T11:13:33;21.00;42.60
45803;DHT22;31504;51.716;9.184;2023-04-25T11:16:33;21.00;42.70
45803;DHT22;31504;51.716;9.184;2023-04-25T11:19:34;21.00;42.90
45803;DHT22;31504;51.716;9.184;2023-04-25T11:22:35;21.00;43.10
45803;DHT22;31504;51.716;9.184;2023-04-25T11:25:35;20.90;43.00
45803;DHT22;31504;51.716;9.184;2023-04-25T11:28:36;20.90;43.00
45803;DHT22;31504;51.716;9.184;2023-04-25T11:31:37;20.90;43.00
45803;DHT22;31504;51.716;9.184;2023-04-25T11:34:37;20.90;43.00
45803;DHT22;31504;51.716;9.184;2023-04-25T11:37:41;20.90;43.00
45803;DHT22;31504;51.716;9.184;2023-04-25T11:40:41;20.90;43.10
45803;DHT22;31504;51.716;9.184;2023-04-25T11:43:43;20.90;43.00
45803;DHT22;31504;51.716;9.184;2023-04-25T11:46:44;20.80;43.00
45803;DHT22;31504;51.716;9.184;2023-04-25T11:49:44;20.90;42.90
45803;DHT22;31504;51.716;9.184;2023-04-25T11:52:46;20.90;43.00
45803;DHT22;31504;51.716;9.184;2023-04-25T11:55:46;20.90;42.80
45803;DHT22;31504;51.716;9.184;2023-04-25T11:58:53;20.90;42.90
45803;DHT22;31504;51.716;9.184;2023-04-25T12:01:54;20.90;42.80
45803;DHT22;31504;51.716;9.184;2023-04-25T12:04:58;20.90;42.80
45803;DHT22;31504;51.716;9.184;2023-04-25T12:08:14;20.90;42.70
45803;DHT22;31504;51.716;9.184;2023-04-25T12:11:21;20.90;42.70
45803;DHT22;31504;51.716;9.184;2023-04-25T12:14:23;20.90;42.70
45803;DHT22;31504;51.716;9.184;2023-04-25T12:17:28;20.90;42.70
45803;DHT22;31504;51.716;9.184;2023-04-25T12:20:31;20.90;42.80
45803;DHT22;31504;51.716;9.184;2023-04-25T12:23:31;20.90;42.60
45803;DHT22;31504;51.716;9.184;2023-04-25T12:29:54;20.90;42.70
45803;DHT22;31504;51.716;9.184;2023-04-25T12:32:55;20.90;42.60
45803;DHT22;31504;51.716;9.184;2023-04-25T12:35:56;20.90;42.60
45803;DHT22;31504;51.716;9.184;2023-04-25T12:38:57;20.90;42.60
45803;DHT22;31504;51.716;9.184;2023-04-25T12:42:04;20.90;42.70
45803;DHT22;31504;51.716;9.184;2023-04-25T12:45:04;20.90;42.50
45803;DHT22;31504;51.716;9.184;2023-04-25T12:48:05;20.90;42.70
45803;DHT22;31504;51.716;9.184;2023-04-25T12:51:05;20.90;42.60
45803;DHT22;31504;51.716;9.184;2023-04-25T12:54:06;20.90;42.70
45803;DHT22;31504;51.716;9.184;2023-04-25T12:57:07;20.90;42.70
45803;DHT22;31504;51.716;9.184;2023-04-25T13:00:08;20.90;42.60
45803;DHT22;31504;51.716;9.184;2023-04-25T13:03:10;20.90;42.70
45803;DHT22;31504;51.716;9.184;2023-04-25T13:06:11;20.90;42.80
45803;DHT22;31504;51.716;9.184;2023-04-25T13:09:13;20.90;42.60
45803;DHT22;31504;51.716;9.184;2023-04-25T13:12:13;20.90;42.50
45803;DHT22;31504;51.716;9.184;2023-04-25T13:15:13;20.90;42.50
45803;DHT22;31504;51.716;9.184;2023-04-25T13:18:15;20.90;42.60
45803;DHT22;31504;51.716;9.184;2023-04-25T13:21:16;20.90;42.50
45803;DHT22;31504;51.716;9.184;2023-04-25T13:24:16;20.80;42.40
45803;DHT22;31504;51.716;9.184;2023-04-25T13:27:17;20.90;42.50
45803;DHT22;31504;51.716;9.184;2023-04-25T13:30:17;20.90;42.70
45803;DHT22;31504;51.716;9.184;2023-04-25T13:33:18;20.90;42.70
45803;DHT22;31504;51.716;9.184;2023-04-25T13:36:19;20.90;42.80
45803;DHT22;31504;51.716;9.184;2023-04-25T13:39:19;20.90;43.00
45803;DHT22;31504;51.716;9.184;2023-04-25T13:42:20;21.00;43.10
45803;DHT22;31504;51.716;9.184;2023-04-25T13:45:20;20.90;43.10
45803;DHT22;31504;51.716;9.184;2023-04-25T13:48:21;20.90;43.20
45803;DHT22;31504;51.716;9.184;2023-04-25T13:51:22;21.00;43.20
45803;DHT22;31504;51.716;9.184;2023-04-25T13:54:23;21.00;43.30
45803;DHT22;31504;51.716;9.184;2023-04-25T14:00:26;20.90;43.20
45803;DHT22;31504;51.716;9.184;2023-04-25T14:03:26;20.90;43.90
45803;DHT22;31504;51.716;9.184;2023-04-25T14:06:27;20.90;43.30
45803;DHT22;31504;51.716;9.184;2023-04-25T14:09:27;20.90;43.30
45803;DHT22;31504;51.716;9.184;2023-04-25T14:12:28;20.90;43.40
45803;DHT22;31504;51.716;9.184;2023-04-25T14:15:29;20.90;43.40
45803;DHT22;31504;51.716;9.184;2023-04-25T14:18:29;20.90;43.40
45803;DHT22;31504;51.716;9.184;2023-04-25T14:21:30;20.90;43.40
45803;DHT22;31504;51.716;9.184;2023-04-25T14:24:32;20.90;43.20
45803;DHT22;31504;51.716;9.184;2023-04-25T14:27:33;20.90;43.30
45803;DHT22;31504;51.716;9.184;2023-04-25T14:30:33;20.90;43.00
45803;DHT22;31504;51.716;9.184;2023-04-25T14:33:33;20.90;43.00
45803;DHT22;31504;51.716;9.184;2023-04-25T14:36:35;20.90;43.00
45803;DHT22;31504;51.716;9.184;2023-04-25T14:39:35;20.90;42.80
45803;DHT22;31504;51.716;9.184;2023-04-25T14:42:36;20.90;43.00
45803;DHT22;31504;51.716;9.184;2023-04-25T14:45:37;20.90;42.70
45803;DHT22;31504;51.716;9.184;2023-04-25T14:48:38;20.90;42.80
45803;DHT22;31504;51.716;9.184;2023-04-25T14:51:38;20.90;42.60
45803;DHT22;31504;51.716;9.184;2023-04-25T14:54:41;20.90;42.70
45803;DHT22;31504;51.716;9.184;2023-04-25T14:57:42;20.90;42.50
45803;DHT22;31504;51.716;9.184;2023-04-25T15:00:46;20.90;42.50
45803;DHT22;31504;51.716;9.184;2023-04-25T15:03:46;20.90;42.70
45803;DHT22;31504;51.716;9.184;2023-04-25T15:06:48;20.90;42.60
45803;DHT22;31504;51.716;9.184;2023-04-25T15:09:48;20.90;42.90
45803;DHT22;31504;51.716;9.184;2023-04-25T15:12:49;20.90;42.60
45803;DHT22;31504;51.716;9.184;2023-04-25T15:15:50;20.90;42.80
45803;DHT22;31504;51.716;9.184;2023-04-25T15:18:54;20.90;43.20
45803;DHT22;31504;51.716;9.184;2023-04-25T15:21:54;20.90;42.70
45803;DHT22;31504;51.716;9.184;2023-04-25T15:24:55;20.90;42.60
45803;DHT22;31504;51.716;9.184;2023-04-25T15:27:56;20.90;42.60
45803;DHT22;31504;51.716;9.184;2023-04-25T15:30:56;20.90;42.60
45803;DHT22;31504;51.716;9.184;2023-04-25T15:33:57;20.90;42.60
45803;DHT22;31504;51.716;9.184;2023-04-25T15:36:58;20.90;42.60
45803;DHT22;31504;51.716;9.184;2023-04-25T15:43:02;20.90;42.50
45803;DHT22;31504;51.716;9.184;2023-04-25T15:46:05;20.90;42.60
45803;DHT22;31504;51.716;9.184;2023-04-25T15:49:06;20.90;42.60
45803;DHT22;31504;51.716;9.184;2023-04-25T15:52:06;20.90;42.30
45803;DHT22;31504;51.716;9.184;2023-04-25T15:55:08;20.90;42.40
45803;DHT22;31504;51.716;9.184;2023-04-25T15:58:08;20.90;42.50
45803;DHT22;31504;51.716;9.184;2023-04-25T16:01:09;20.90;42.50
45803;DHT22;31504;51.716;9.184;2023-04-25T16:04:10;21.00;42.60
45803;DHT22;31504;51.716;9.184;2023-04-25T16:07:10;21.00;42.60
45803;DHT22;31504;51.716;9.184;2023-04-25T16:10:11;21.00;42.80
45803;DHT22;31504;51.716;9.184;2023-04-25T16:13:12;20.90;42.80
45803;DHT22;31504;51.716;9.184;2023-04-25T16:16:13;20.90;42.90
45803;DHT22;31504;51.716;9.184;2023-04-25T16:19:13;20.90;42.80
45803;DHT22;31504;51.716;9.184;2023-04-25T16:22:13;20.90;42.90
45803;DHT22;31504;51.716;9.184;2023-04-25T16:25:15;21.00;42.70
45803;DHT22;31504;51.716;9.184;2023-04-25T16:28:16;21.00;42.80
45803;DHT22;31504;51.716;9.184;2023-04-25T16:31:16;21.00;42.80
45803;DHT22;31504;51.716;9.184;2023-04-25T16:34:17;21.00;42.90
45803;DHT22;31504;51.716;9.184;2023-04-25T16:37:17;20.90;42.80
45803;DHT22;31504;51.716;9.184;2023-04-25T16:40:18;20.90;42.80
45803;DHT22;31504;51.716;9.184;2023-04-25T16:43:18;20.90;42.80
45803;DHT22;31504;51.716;9.184;2023-04-25T16:46:20;20.90;42.90
45803;DHT22;31504;51.716;9.184;2023-04-25T16:49:22;20.90;42.80
45803;DHT22;31504;51.716;9.184;2023-04-25T16:52:23;21.00;42.80
45803;DHT22;31504;51.716;9.184;2023-04-25T16:55:23;21.00;42.90
45803;DHT22;31504;51.716;9.184;2023-04-25T16:58:23;21.00;42.70
45803;DHT22;31504;51.716;9.184;2023-04-25T17:01:26;20.90;42.80
45803;DHT22;31504;51.716;9.184;2023-04-25T17:04:26;21.00;42.90
45803;DHT22;31504;51.716;9.184;2023-04-25T17:07:27;21.00;42.80
45803;DHT22;31504;51.716;9.184;2023-04-25T17:10:28;21.00;42.90
45803;DHT22;31504;51.716;9.184;2023-04-25T17:13:29;21.00;42.90
45803;DHT22;31504;51.716;9.184;2023-04-25T17:16:35;21.00;42.80
45803;DHT22;31504;51.716;9.184;2023-04-25T17:19:36;21.00;43.00
45803;DHT22;31504;51.716;9.184;2023-04-25T17:22:36;21.00;43.10
45803;DHT22;31504;51.716;9.184;2023-04-25T17:25:37;20.90;43.10
45803;DHT22;31504;51.716;9.184;2023-04-25T17:28:37;20.90;43.10
45803;DHT22;31504;51.716;9.184;2023-04-25T17:31:38;20.90;43.10
45803;DHT22;31504;51.716;9.184;2023-04-25T17:34:38;20.90;43.30
45803;DHT22;31504;51.716;9.184;2023-04-25T17:37:39;20.90;43.10
45803;DHT22;31504;51.716;9.184;2023-04-25T17:40:40;20.90;43.40
45803;DHT22;31504;51.716;9.184;2023-04-25T17:43:40;20.90;43.60
45803;DHT22;31504;51.716;9.184;2023-04-25T17:46:41;20.90;43.50
45803;DHT22;31504;51.716;9.184;2023-04-25T17:49:41;20.90;43.60
45803;DHT22;31504;51.716;9.184;2023-04-25T17:52:42;20.90;43.60
45803;DHT22;31504;51.716;9.184;2023-04-25T17:55:44;20.90;43.50
45803;DHT22;31504;51.716;9.184;2023-04-25T17:58:44;20.90;43.50
45803;DHT22;31504;51.716;9.184;2023-04-25T18:01:45;20.90;43.40
45803;DHT22;31504;51.716;9.184;2023-04-25T18:04:45;20.90;43.40
45803;DHT22;31504;51.716;9.184;2023-04-25T18:07:46;20.90;43.50
45803;DHT22;31504;51.716;9.184;2023-04-25T18:10:46;20.80;43.40
45803;DHT22;31504;51.716;9.184;2023-04-25T18:13:47;20.90;43.40
45803;DHT22;31504;51.716;9.184;2023-04-25T18:16:49;20.90;43.50
45803;DHT22;31504;51.716;9.184;2023-04-25T18:19:50;20.90;43.40
45803;DHT22;31504;51.716;9.184;2023-04-25T18:22:50;20.80;43.50
45803;DHT22;31504;51.716;9.184;2023-04-25T18:25:51;20.80;43.50
45803;DHT22;31504;51.716;9.184;2023-04-25T18:28:53;20.90;43.50
45803;DHT22;31504;51.716;9.184;2023-04-25T18:31:53;20.80;43.50
45803;DHT22;31504;51.716;9.184;2023-04-25T18:34:54;20.80;43.50
45803;DHT22;31504;51.716;9.184;2023-04-25T18:37:54;20.80;43.50
45803;DHT22;31504;51.716;9.184;2023-04-25T18:40:55;20.80;43.50
45803;DHT22;31504;51.716;9.184;2023-04-25T18:43:55;20.80;43.50
45803;DHT22;31504;51.716;9.184;2023-04-25T18:47:00;20.80;43.50
45803;DHT22;31504;51.716;9.184;2023-04-25T18:50:00;20.80;43.50
45803;DHT22;31504;51.716;9.184;2023-04-25T18:53:01;20.80;43.40
45803;DHT22;31504;51.716;9.184;2023-04-25T18:56:01;20.80;43.50
45803;DHT22;31504;51.716;9.184;2023-04-25T18:59:02;20.80;43.60
45803;DHT22;31504;51.716;9.184;2023-04-25T19:02:02;20.80;43.50
45803;DHT22;31504;51.716;9.184;2023-04-25T19:05:04;20.80;43.50
45803;DHT22;31504;51.716;9.184;2023-04-25T19:08:04;20.80;43.40
45803;DHT22;31504;51.716;9.184;2023-04-25T19:11:05;20.80;43.50
45803;DHT22;31504;51.716;9.184;2023-04-25T19:14:05;20.80;43.50
45803;DHT22;31504;51.716;9.184;2023-04-25T19:17:06;20.80;43.60
45803;DHT22;31504;51.716;9.184;2023-04-25T19:20:06;20.80;43.40